Aviation Digital Data Service (ADDS)

Output produced by METARs form (0149 UTC 25 April 2015)
found at http://aviationweather.gov/adds/metars/
 
KOAJ 242320Z 2500/2524 VRB02KT P6SM SCT250 
     FM251200 19004KT P6SM BKN100 
     FM251500 21006KT P6SM OVC050 
     FM251900 21008KT 6SM -RA OVC015 AMD LTD TO CLD VIS AND WIND